sensor_id;sensor_type;location;lat;lon;timestamp;temperature;humidity
12309;DHT22;6217;48.150;17.142;2022-09-30T00:03:12;14.30;90.60
12309;DHT22;6217;48.150;17.142;2022-09-30T00:07:18;14.20;90.60
12309;DHT22;6217;48.150;17.142;2022-09-30T00:11:27;14.20;90.80
12309;DHT22;6217;48.150;17.142;2022-09-30T00:15:34;14.20;91.00
12309;DHT22;6217;48.150;17.142;2022-09-30T00:19:40;14.20;91.00
12309;DHT22;6217;48.150;17.142;2022-09-30T00:23:46;14.10;91.20
12309;DHT22;6217;48.150;17.142;2022-09-30T00:27:52;14.10;91.50
12309;DHT22;6217;48.150;17.142;2022-09-30T00:31:58;14.10;91.50
12309;DHT22;6217;48.150;17.142;2022-09-30T00:36:04;14.20;91.60
12309;DHT22;6217;48.150;17.142;2022-09-30T00:40:10;14.20;91.60
12309;DHT22;6217;48.150;17.142;2022-09-30T00:49:13;14.20;91.90
12309;DHT22;6217;48.150;17.142;2022-09-30T00:53:32;14.10;91.90
12309;DHT22;6217;48.150;17.142;2022-09-30T00:57:41;14.10;92.00
12309;DHT22;6217;48.150;17.142;2022-09-30T01:01:48;14.10;91.90
12309;DHT22;6217;48.150;17.142;2022-09-30T01:05:55;14.20;91.80
12309;DHT22;6217;48.150;17.142;2022-09-30T01:10:01;14.10;91.90
12309;DHT22;6217;48.150;17.142;2022-09-30T01:14:21;14.10;92.10
12309;DHT22;6217;48.150;17.142;2022-09-30T01:32:15;14.10;92.40
12309;DHT22;6217;48.150;17.142;2022-09-30T01:41:07;14.10;92.50
12309;DHT22;6217;48.150;17.142;2022-09-30T01:45:36;14.10;92.40
12309;DHT22;6217;48.150;17.142;2022-09-30T01:50:25;14.10;92.40
12309;DHT22;6217;48.150;17.142;2022-09-30T01:54:46;14.00;92.50
12309;DHT22;6217;48.150;17.142;2022-09-30T01:59:06;14.00;92.70
12309;DHT22;6217;48.150;17.142;2022-09-30T02:03:20;14.10;92.80
12309;DHT22;6217;48.150;17.142;2022-09-30T02:07:36;14.10;92.70
12309;DHT22;6217;48.150;17.142;2022-09-30T02:11:44;14.20;92.60
12309;DHT22;6217;48.150;17.142;2022-09-30T02:15:56;14.10;92.70
12309;DHT22;6217;48.150;17.142;2022-09-30T02:20:07;14.10;92.90
12309;DHT22;6217;48.150;17.142;2022-09-30T02:24:17;14.10;93.00
12309;DHT22;6217;48.150;17.142;2022-09-30T02:28:26;14.00;93.10
12309;DHT22;6217;48.150;17.142;2022-09-30T02:32:39;14.00;93.10
12309;DHT22;6217;48.150;17.142;2022-09-30T02:37:09;14.10;93.20
12309;DHT22;6217;48.150;17.142;2022-09-30T02:41:22;14.10;93.20
12309;DHT22;6217;48.150;17.142;2022-09-30T02:45:40;14.10;93.30
12309;DHT22;6217;48.150;17.142;2022-09-30T02:50:03;14.10;93.40
12309;DHT22;6217;48.150;17.142;2022-09-30T02:59:19;14.10;93.50
12309;DHT22;6217;48.150;17.142;2022-09-30T03:03:34;14.10;93.50
12309;DHT22;6217;48.150;17.142;2022-09-30T03:07:43;14.10;93.50
12309;DHT22;6217;48.150;17.142;2022-09-30T03:11:49;14.10;93.40
12309;DHT22;6217;48.150;17.142;2022-09-30T03:30:04;14.20;93.50
12309;DHT22;6217;48.150;17.142;2022-09-30T03:34:27;14.20;93.50
12309;DHT22;6217;48.150;17.142;2022-09-30T03:47:46;14.00;94.10
12309;DHT22;6217;48.150;17.142;2022-09-30T03:51:56;13.90;94.30
12309;DHT22;6217;48.150;17.142;2022-09-30T03:56:02;13.90;94.70
12309;DHT22;6217;48.150;17.142;2022-09-30T04:00:09;13.80;94.80
12309;DHT22;6217;48.150;17.142;2022-09-30T04:04:15;13.80;95.00
12309;DHT22;6217;48.150;17.142;2022-09-30T04:08:22;13.70;95.20
12309;DHT22;6217;48.150;17.142;2022-09-30T04:12:27;13.70;95.40
12309;DHT22;6217;48.150;17.142;2022-09-30T04:16:33;13.70;95.50
12309;DHT22;6217;48.150;17.142;2022-09-30T04:20:39;13.70;95.70
12309;DHT22;6217;48.150;17.142;2022-09-30T04:24:45;13.70;95.70
12309;DHT22;6217;48.150;17.142;2022-09-30T04:28:52;13.60;96.10
12309;DHT22;6217;48.150;17.142;2022-09-30T04:33:07;13.60;96.20
12309;DHT22;6217;48.150;17.142;2022-09-30T04:37:12;13.60;96.30
12309;DHT22;6217;48.150;17.142;2022-09-30T04:41:19;13.60;96.50
12309;DHT22;6217;48.150;17.142;2022-09-30T04:45:25;13.60;96.60
12309;DHT22;6217;48.150;17.142;2022-09-30T04:49:31;13.60;96.70
12309;DHT22;6217;48.150;17.142;2022-09-30T04:53:37;13.70;96.90
12309;DHT22;6217;48.150;17.142;2022-09-30T04:57:43;13.70;96.80
12309;DHT22;6217;48.150;17.142;2022-09-30T05:01:50;13.80;96.90
12309;DHT22;6217;48.150;17.142;2022-09-30T05:05:56;13.90;96.90
12309;DHT22;6217;48.150;17.142;2022-09-30T05:10:02;13.90;97.00
12309;DHT22;6217;48.150;17.142;2022-09-30T05:14:08;13.90;97.10
12309;DHT22;6217;48.150;17.142;2022-09-30T05:18:14;13.90;97.20
12309;DHT22;6217;48.150;17.142;2022-09-30T05:22:21;14.00;97.30
12309;DHT22;6217;48.150;17.142;2022-09-30T05:26:29;14.10;97.30
12309;DHT22;6217;48.150;17.142;2022-09-30T05:30:35;14.30;97.40
12309;DHT22;6217;48.150;17.142;2022-09-30T05:34:40;14.40;97.50
12309;DHT22;6217;48.150;17.142;2022-09-30T05:38:49;14.50;97.50
12309;DHT22;6217;48.150;17.142;2022-09-30T05:42:57;14.50;97.60
12309;DHT22;6217;48.150;17.142;2022-09-30T05:47:04;14.50;97.70
12309;DHT22;6217;48.150;17.142;2022-09-30T05:51:10;14.50;97.90
12309;DHT22;6217;48.150;17.142;2022-09-30T05:55:18;14.60;98.00
12309;DHT22;6217;48.150;17.142;2022-09-30T05:59:25;14.60;98.00
12309;DHT22;6217;48.150;17.142;2022-09-30T06:03:31;14.70;98.20
12309;DHT22;6217;48.150;17.142;2022-09-30T06:07:37;14.70;98.30
12309;DHT22;6217;48.150;17.142;2022-09-30T06:11:43;14.80;98.30
12309;DHT22;6217;48.150;17.142;2022-09-30T06:16:00;14.80;98.40
12309;DHT22;6217;48.150;17.142;2022-09-30T06:20:08;14.70;98.50
12309;DHT22;6217;48.150;17.142;2022-09-30T06:24:14;14.70;98.60
12309;DHT22;6217;48.150;17.142;2022-09-30T06:28:21;14.70;98.60
12309;DHT22;6217;48.150;17.142;2022-09-30T06:32:28;14.80;98.40
12309;DHT22;6217;48.150;17.142;2022-09-30T06:36:34;14.80;98.50
12309;DHT22;6217;48.150;17.142;2022-09-30T06:40:41;14.70;98.50
12309;DHT22;6217;48.150;17.142;2022-09-30T06:44:48;14.70;98.60
12309;DHT22;6217;48.150;17.142;2022-09-30T06:48:55;14.80;98.60
12309;DHT22;6217;48.150;17.142;2022-09-30T06:53:04;14.90;98.60
12309;DHT22;6217;48.150;17.142;2022-09-30T06:57:11;14.90;98.80
12309;DHT22;6217;48.150;17.142;2022-09-30T07:01:18;14.90;98.50
12309;DHT22;6217;48.150;17.142;2022-09-30T07:05:25;14.80;98.50
12309;DHT22;6217;48.150;17.142;2022-09-30T07:09:31;14.80;98.70
12309;DHT22;6217;48.150;17.142;2022-09-30T07:13:37;14.90;98.80
12309;DHT22;6217;48.150;17.142;2022-09-30T07:17:48;14.90;98.70
12309;DHT22;6217;48.150;17.142;2022-09-30T07:21:55;14.90;98.60
12309;DHT22;6217;48.150;17.142;2022-09-30T07:26:22;15.00;98.60
12309;DHT22;6217;48.150;17.142;2022-09-30T07:30:29;15.10;98.40
12309;DHT22;6217;48.150;17.142;2022-09-30T07:34:36;15.10;98.30
12309;DHT22;6217;48.150;17.142;2022-09-30T07:38:43;15.20;98.20
12309;DHT22;6217;48.150;17.142;2022-09-30T07:42:49;15.20;98.00
12309;DHT22;6217;48.150;17.142;2022-09-30T07:46:55;15.20;98.00
12309;DHT22;6217;48.150;17.142;2022-09-30T07:51:01;15.10;97.90
12309;DHT22;6217;48.150;17.142;2022-09-30T07:55:07;15.00;98.00
12309;DHT22;6217;48.150;17.142;2022-09-30T07:59:13;15.00;98.00
12309;DHT22;6217;48.150;17.142;2022-09-30T08:03:19;15.00;97.90
12309;DHT22;6217;48.150;17.142;2022-09-30T08:07:25;15.20;97.90
12309;DHT22;6217;48.150;17.142;2022-09-30T08:11:35;15.30;97.90
12309;DHT22;6217;48.150;17.142;2022-09-30T08:15:42;15.30;97.70
12309;DHT22;6217;48.150;17.142;2022-09-30T08:19:48;15.50;97.70
12309;DHT22;6217;48.150;17.142;2022-09-30T08:23:54;15.60;97.60
12309;DHT22;6217;48.150;17.142;2022-09-30T08:28:00;15.60;97.70
12309;DHT22;6217;48.150;17.142;2022-09-30T08:32:06;15.50;97.70
12309;DHT22;6217;48.150;17.142;2022-09-30T08:36:14;15.60;97.70
12309;DHT22;6217;48.150;17.142;2022-09-30T08:40:30;15.60;97.30
12309;DHT22;6217;48.150;17.142;2022-09-30T08:44:44;15.80;97.40
12309;DHT22;6217;48.150;17.142;2022-09-30T08:49:04;16.00;97.00
12309;DHT22;6217;48.150;17.142;2022-09-30T08:53:33;16.20;96.80
12309;DHT22;6217;48.150;17.142;2022-09-30T08:57:43;16.30;96.40
12309;DHT22;6217;48.150;17.142;2022-09-30T09:01:53;16.30;96.50
12309;DHT22;6217;48.150;17.142;2022-09-30T09:10:41;16.50;96.30
12309;DHT22;6217;48.150;17.142;2022-09-30T09:15:05;16.60;96.20
12309;DHT22;6217;48.150;17.142;2022-09-30T09:19:22;16.80;95.90
12309;DHT22;6217;48.150;17.142;2022-09-30T09:23:43;16.80;95.70
12309;DHT22;6217;48.150;17.142;2022-09-30T09:27:56;16.90;95.70
12309;DHT22;6217;48.150;17.142;2022-09-30T09:32:13;17.00;95.70
12309;DHT22;6217;48.150;17.142;2022-09-30T09:45:53;17.80;94.60
12309;DHT22;6217;48.150;17.142;2022-09-30T09:50:13;17.80;94.00
12309;DHT22;6217;48.150;17.142;2022-09-30T09:54:24;17.90;94.10
12309;DHT22;6217;48.150;17.142;2022-09-30T09:58:32;17.90;94.10
12309;DHT22;6217;48.150;17.142;2022-09-30T10:02:38;17.70;94.30
12309;DHT22;6217;48.150;17.142;2022-09-30T10:06:46;17.70;94.50
12309;DHT22;6217;48.150;17.142;2022-09-30T10:11:18;17.90;94.20
12309;DHT22;6217;48.150;17.142;2022-09-30T10:15:26;18.10;93.80
12309;DHT22;6217;48.150;17.142;2022-09-30T10:19:33;18.20;93.50
12309;DHT22;6217;48.150;17.142;2022-09-30T10:23:40;18.10;93.40
12309;DHT22;6217;48.150;17.142;2022-09-30T10:27:56;18.00;93.30
12309;DHT22;6217;48.150;17.142;2022-09-30T10:32:06;17.90;93.30
12309;DHT22;6217;48.150;17.142;2022-09-30T10:36:18;17.70;93.60
12309;DHT22;6217;48.150;17.142;2022-09-30T10:40:28;17.60;93.70
12309;DHT22;6217;48.150;17.142;2022-09-30T10:44:44;17.60;93.80
12309;DHT22;6217;48.150;17.142;2022-09-30T10:48:54;17.80;93.60
12309;DHT22;6217;48.150;17.142;2022-09-30T10:53:12;17.90;93.30
12309;DHT22;6217;48.150;17.142;2022-09-30T10:57:27;17.90;93.10
12309;DHT22;6217;48.150;17.142;2022-09-30T11:01:48;17.90;93.20
12309;DHT22;6217;48.150;17.142;2022-09-30T11:05:59;18.00;93.20
12309;DHT22;6217;48.150;17.142;2022-09-30T11:10:27;17.90;93.20
12309;DHT22;6217;48.150;17.142;2022-09-30T11:15:00;17.50;93.30
12309;DHT22;6217;48.150;17.142;2022-09-30T11:23:43;17.10;93.70
12309;DHT22;6217;48.150;17.142;2022-09-30T11:28:23;17.00;93.80
12309;DHT22;6217;48.150;17.142;2022-09-30T11:32:48;17.00;93.70
12309;DHT22;6217;48.150;17.142;2022-09-30T11:37:19;16.90;93.80
12309;DHT22;6217;48.150;17.142;2022-09-30T11:41:34;17.00;93.90
12309;DHT22;6217;48.150;17.142;2022-09-30T11:58:58;16.70;94.00
12309;DHT22;6217;48.150;17.142;2022-09-30T12:03:21;16.70;93.80
12309;DHT22;6217;48.150;17.142;2022-09-30T12:16:13;16.90;93.60
12309;DHT22;6217;48.150;17.142;2022-09-30T12:20:29;17.00;93.40
12309;DHT22;6217;48.150;17.142;2022-09-30T12:24:43;17.10;93.30
12309;DHT22;6217;48.150;17.142;2022-09-30T12:28:56;17.10;93.30
12309;DHT22;6217;48.150;17.142;2022-09-30T12:39:09;17.20;93.10
12309;DHT22;6217;48.150;17.142;2022-09-30T12:43:54;17.20;92.80
12309;DHT22;6217;48.150;17.142;2022-09-30T12:48:14;17.30;93.10
12309;DHT22;6217;48.150;17.142;2022-09-30T12:52:23;17.40;92.90
12309;DHT22;6217;48.150;17.142;2022-09-30T12:56:30;17.40;92.60
12309;DHT22;6217;48.150;17.142;2022-09-30T13:00:37;17.40;92.30
12309;DHT22;6217;48.150;17.142;2022-09-30T13:04:43;17.30;92.30
12309;DHT22;6217;48.150;17.142;2022-09-30T13:09:15;17.40;92.40
12309;DHT22;6217;48.150;17.142;2022-09-30T13:13:25;17.60;92.00
12309;DHT22;6217;48.150;17.142;2022-09-30T13:17:32;17.60;91.60
12309;DHT22;6217;48.150;17.142;2022-09-30T13:21:40;17.60;91.90
12309;DHT22;6217;48.150;17.142;2022-09-30T13:25:53;17.80;91.40
12309;DHT22;6217;48.150;17.142;2022-09-30T13:29:59;17.90;91.20
12309;DHT22;6217;48.150;17.142;2022-09-30T13:34:12;18.00;91.00
12309;DHT22;6217;48.150;17.142;2022-09-30T13:38:21;18.00;90.90
12309;DHT22;6217;48.150;17.142;2022-09-30T13:42:42;18.10;90.70
12309;DHT22;6217;48.150;17.142;2022-09-30T13:46:55;18.00;90.80
12309;DHT22;6217;48.150;17.142;2022-09-30T13:51:10;18.00;90.80
12309;DHT22;6217;48.150;17.142;2022-09-30T13:55:24;17.80;90.60
12309;DHT22;6217;48.150;17.142;2022-09-30T14:04:27;17.50;91.00
12309;DHT22;6217;48.150;17.142;2022-09-30T14:22:44;17.20;90.90
12309;DHT22;6217;48.150;17.142;2022-09-30T14:31:45;17.20;90.80
12309;DHT22;6217;48.150;17.142;2022-09-30T14:36:25;17.20;90.70
12309;DHT22;6217;48.150;17.142;2022-09-30T14:40:34;17.10;90.60
12309;DHT22;6217;48.150;17.142;2022-09-30T14:44:44;17.10;90.60
12309;DHT22;6217;48.150;17.142;2022-09-30T14:48:57;17.00;90.50
12309;DHT22;6217;48.150;17.142;2022-09-30T14:53:24;17.00;90.70
12309;DHT22;6217;48.150;17.142;2022-09-30T14:57:34;17.00;90.70
12309;DHT22;6217;48.150;17.142;2022-09-30T15:02:15;17.00;90.70
12309;DHT22;6217;48.150;17.142;2022-09-30T15:06:35;17.00;90.70
12309;DHT22;6217;48.150;17.142;2022-09-30T15:11:23;17.00;90.70
12309;DHT22;6217;48.150;17.142;2022-09-30T15:15:38;17.00;90.80
12309;DHT22;6217;48.150;17.142;2022-09-30T15:20:31;17.00;90.90
12309;DHT22;6217;48.150;17.142;2022-09-30T15:24:45;17.00;91.10
12309;DHT22;6217;48.150;17.142;2022-09-30T15:28:53;16.90;91.20
12309;DHT22;6217;48.150;17.142;2022-09-30T15:33:04;16.90;91.20
12309;DHT22;6217;48.150;17.142;2022-09-30T15:37:21;16.80;91.20
12309;DHT22;6217;48.150;17.142;2022-09-30T15:41:41;16.80;91.40
12309;DHT22;6217;48.150;17.142;2022-09-30T15:45:48;16.80;91.50
12309;DHT22;6217;48.150;17.142;2022-09-30T15:49:55;16.60;91.40
12309;DHT22;6217;48.150;17.142;2022-09-30T15:54:29;16.60;91.60
12309;DHT22;6217;48.150;17.142;2022-09-30T15:58:42;16.60;91.70
12309;DHT22;6217;48.150;17.142;2022-09-30T16:03:27;16.60;91.70
12309;DHT22;6217;48.150;17.142;2022-09-30T16:07:48;16.50;92.10
12309;DHT22;6217;48.150;17.142;2022-09-30T16:12:20;16.40;91.90
12309;DHT22;6217;48.150;17.142;2022-09-30T16:16:49;16.30;92.00
12309;DHT22;6217;48.150;17.142;2022-09-30T16:21:22;16.30;92.10
12309;DHT22;6217;48.150;17.142;2022-09-30T16:26:28;16.30;92.40
12309;DHT22;6217;48.150;17.142;2022-09-30T16:30:49;16.20;92.40
12309;DHT22;6217;48.150;17.142;2022-09-30T16:34:57;16.10;92.50
12309;DHT22;6217;48.150;17.142;2022-09-30T16:39:04;16.00;92.60
12309;DHT22;6217;48.150;17.142;2022-09-30T16:43:11;15.90;92.80
12309;DHT22;6217;48.150;17.142;2022-09-30T16:47:17;15.90;92.90
12309;DHT22;6217;48.150;17.142;2022-09-30T16:51:31;15.90;92.90
12309;DHT22;6217;48.150;17.142;2022-09-30T16:55:59;15.90;93.00
12309;DHT22;6217;48.150;17.142;2022-09-30T17:00:05;16.00;93.00
12309;DHT22;6217;48.150;17.142;2022-09-30T17:04:12;16.00;93.00
12309;DHT22;6217;48.150;17.142;2022-09-30T17:08:20;16.00;93.20
12309;DHT22;6217;48.150;17.142;2022-09-30T17:12:27;16.00;93.40
12309;DHT22;6217;48.150;17.142;2022-09-30T17:16:33;16.00;93.40
12309;DHT22;6217;48.150;17.142;2022-09-30T17:20:45;16.00;93.50
12309;DHT22;6217;48.150;17.142;2022-09-30T17:24:57;16.00;93.60
12309;DHT22;6217;48.150;17.142;2022-09-30T17:29:04;16.00;93.70
12309;DHT22;6217;48.150;17.142;2022-09-30T17:33:11;15.90;93.80
12309;DHT22;6217;48.150;17.142;2022-09-30T17:37:17;16.00;93.80
12309;DHT22;6217;48.150;17.142;2022-09-30T17:41:24;15.90;94.00
12309;DHT22;6217;48.150;17.142;2022-09-30T17:45:49;15.90;94.10
12309;DHT22;6217;48.150;17.142;2022-09-30T17:49:56;16.00;94.10
12309;DHT22;6217;48.150;17.142;2022-09-30T17:54:05;15.90;94.10
12309;DHT22;6217;48.150;17.142;2022-09-30T17:58:12;15.90;94.50
12309;DHT22;6217;48.150;17.142;2022-09-30T18:02:18;15.90;94.20
12309;DHT22;6217;48.150;17.142;2022-09-30T18:06:26;15.80;94.10
12309;DHT22;6217;48.150;17.142;2022-09-30T18:10:35;15.90;94.00
12309;DHT22;6217;48.150;17.142;2022-09-30T18:14:44;15.90;94.10
12309;DHT22;6217;48.150;17.142;2022-09-30T18:18:51;15.90;94.10
12309;DHT22;6217;48.150;17.142;2022-09-30T18:22:57;15.90;94.20
12309;DHT22;6217;48.150;17.142;2022-09-30T18:27:03;15.90;94.20
12309;DHT22;6217;48.150;17.142;2022-09-30T18:31:10;15.90;94.20
12309;DHT22;6217;48.150;17.142;2022-09-30T18:35:26;15.90;94.30
12309;DHT22;6217;48.150;17.142;2022-09-30T18:39:33;15.80;94.40
12309;DHT22;6217;48.150;17.142;2022-09-30T18:43:43;15.80;94.50
12309;DHT22;6217;48.150;17.142;2022-09-30T18:47:53;15.80;94.50
12309;DHT22;6217;48.150;17.142;2022-09-30T18:52:10;15.80;94.60
12309;DHT22;6217;48.150;17.142;2022-09-30T18:56:16;15.80;94.40
12309;DHT22;6217;48.150;17.142;2022-09-30T19:00:27;15.80;94.40
12309;DHT22;6217;48.150;17.142;2022-09-30T19:04:35;15.80;94.40
12309;DHT22;6217;48.150;17.142;2022-09-30T19:09:02;15.80;94.50
12309;DHT22;6217;48.150;17.142;2022-09-30T19:13:13;15.80;94.50
12309;DHT22;6217;48.150;17.142;2022-09-30T19:17:24;15.70;94.60
12309;DHT22;6217;48.150;17.142;2022-09-30T19:21:31;15.60;94.80
12309;DHT22;6217;48.150;17.142;2022-09-30T19:25:41;15.60;94.80
12309;DHT22;6217;48.150;17.142;2022-09-30T19:29:48;15.60;94.90
12309;DHT22;6217;48.150;17.142;2022-09-30T19:33:57;15.60;95.00
12309;DHT22;6217;48.150;17.142;2022-09-30T19:38:04;15.60;95.20
12309;DHT22;6217;48.150;17.142;2022-09-30T19:42:10;15.60;95.40
12309;DHT22;6217;48.150;17.142;2022-09-30T19:46:21;15.60;95.50
12309;DHT22;6217;48.150;17.142;2022-09-30T19:50:27;15.60;95.60
12309;DHT22;6217;48.150;17.142;2022-09-30T19:54:34;15.60;95.70
12309;DHT22;6217;48.150;17.142;2022-09-30T19:58:50;15.50;95.90
12309;DHT22;6217;48.150;17.142;2022-09-30T20:03:19;15.40;95.90
12309;DHT22;6217;48.150;17.142;2022-09-30T20:07:27;15.40;96.20
12309;DHT22;6217;48.150;17.142;2022-09-30T20:11:35;15.30;96.00
12309;DHT22;6217;48.150;17.142;2022-09-30T20:15:43;15.30;96.00
12309;DHT22;6217;48.150;17.142;2022-09-30T20:19:57;15.30;96.20
12309;DHT22;6217;48.150;17.142;2022-09-30T20:24:28;15.20;96.30
12309;DHT22;6217;48.150;17.142;2022-09-30T20:28:37;15.10;96.60
12309;DHT22;6217;48.150;17.142;2022-09-30T20:32:44;15.00;96.90
12309;DHT22;6217;48.150;17.142;2022-09-30T20:36:50;15.00;97.00
12309;DHT22;6217;48.150;17.142;2022-09-30T20:41:02;15.00;97.10
12309;DHT22;6217;48.150;17.142;2022-09-30T20:45:20;14.90;97.30
12309;DHT22;6217;48.150;17.142;2022-09-30T20:49:26;14.90;97.50
12309;DHT22;6217;48.150;17.142;2022-09-30T20:53:33;14.90;97.50
12309;DHT22;6217;48.150;17.142;2022-09-30T20:57:41;14.80;97.60
12309;DHT22;6217;48.150;17.142;2022-09-30T21:01:53;14.80;97.80
12309;DHT22;6217;48.150;17.142;2022-09-30T21:05:59;14.80;98.00
12309;DHT22;6217;48.150;17.142;2022-09-30T21:10:08;14.80;98.00
12309;DHT22;6217;48.150;17.142;2022-09-30T21:14:15;14.80;98.20
12309;DHT22;6217;48.150;17.142;2022-09-30T21:18:25;15.00;98.30
12309;DHT22;6217;48.150;17.142;2022-09-30T21:22:34;15.00;98.30
12309;DHT22;6217;48.150;17.142;2022-09-30T21:26:43;14.90;98.30
12309;DHT22;6217;48.150;17.142;2022-09-30T21:30:50;14.90;98.50
12309;DHT22;6217;48.150;17.142;2022-09-30T21:34:56;14.80;98.50
12309;DHT22;6217;48.150;17.142;2022-09-30T21:39:03;14.80;98.60
12309;DHT22;6217;48.150;17.142;2022-09-30T21:43:09;14.80;98.70
12309;DHT22;6217;48.150;17.142;2022-09-30T21:47:16;14.90;98.70
12309;DHT22;6217;48.150;17.142;2022-09-30T21:51:41;14.80;98.70
12309;DHT22;6217;48.150;17.142;2022-09-30T21:55:48;14.70;98.80
12309;DHT22;6217;48.150;17.142;2022-09-30T21:59:54;14.70;99.00
12309;DHT22;6217;48.150;17.142;2022-09-30T22:04:00;14.70;99.20
12309;DHT22;6217;48.150;17.142;2022-09-30T22:08:10;14.70;99.30
12309;DHT22;6217;48.150;17.142;2022-09-30T22:12:16;14.60;99.40
12309;DHT22;6217;48.150;17.142;2022-09-30T22:16:26;14.50;99.50
12309;DHT22;6217;48.150;17.142;2022-09-30T22:20:34;14.50;99.70
12309;DHT22;6217;48.150;17.142;2022-09-30T22:24:40;14.50;99.60
12309;DHT22;6217;48.150;17.142;2022-09-30T22:29:12;14.50;99.50
12309;DHT22;6217;48.150;17.142;2022-09-30T22:33:21;14.50;99.70
12309;DHT22;6217;48.150;17.142;2022-09-30T22:37:55;14.50;99.60
12309;DHT22;6217;48.150;17.142;2022-09-30T22:42:24;14.40;99.90
12309;DHT22;6217;48.150;17.142;2022-09-30T22:46:32;14.40;99.80
12309;DHT22;6217;48.150;17.142;2022-09-30T22:50:39;14.40;99.90
12309;DHT22;6217;48.150;17.142;2022-09-30T22:54:45;14.40;99.90
12309;DHT22;6217;48.150;17.142;2022-09-30T22:58:54;14.50;99.90
12309;DHT22;6217;48.150;17.142;2022-09-30T23:03:01;14.50;99.90
12309;DHT22;6217;48.150;17.142;2022-09-30T23:07:28;14.40;99.90
12309;DHT22;6217;48.150;17.142;2022-09-30T23:11:34;14.40;99.90
12309;DHT22;6217;48.150;17.142;2022-09-30T23:15:44;14.40;99.90
12309;DHT22;6217;48.150;17.142;2022-09-30T23:24:25;14.40;99.90
12309;DHT22;6217;48.150;17.142;2022-09-30T23:28:34;14.40;99.90
12309;DHT22;6217;48.150;17.142;2022-09-30T23:33:16;14.50;99.90
12309;DHT22;6217;48.150;17.142;2022-09-30T23:37:40;14.60;99.90
12309;DHT22;6217;48.150;17.142;2022-09-30T23:47:38;14.60;99.90
12309;DHT22;6217;48.150;17.142;2022-09-30T23:56:46;14.60;99.90
